createdAt,value
2018-02-11T00:00:16.578Z,79.60
2018-02-11T00:02:44.559Z,79.70
2018-02-11T00:05:12.517Z,80.40
2018-02-11T00:07:40.478Z,80.10
2018-02-11T00:10:08.457Z,80.20
2018-02-11T00:12:36.415Z,80.10
2018-02-11T00:15:04.497Z,80.10
2018-02-11T00:17:32.453Z,80.10
2018-02-11T00:20:00.351Z,80.40
2018-02-11T00:22:28.298Z,80.10
2018-02-11T00:24:56.278Z,80.70
2018-02-11T00:27:24.238Z,80.40
2018-02-11T00:29:52.118Z,80.60
2018-02-11T00:32:20.078Z,80.80
2018-02-11T00:34:47.938Z,80.70
2018-02-11T00:37:15.828Z,80.80
2018-02-11T00:39:43.779Z,80.80
2018-02-11T00:42:11.738Z,81.00
2018-02-11T00:44:39.717Z,80.70
2018-02-11T00:47:07.679Z,81.10
2018-02-11T00:49:35.636Z,81.30
2018-02-11T00:52:03.618Z,80.80
2018-02-11T00:54:31.488Z,80.70
2018-02-11T00:56:59.441Z,80.70
2018-02-11T00:59:27.418Z,81.10
2018-02-11T01:01:55.398Z,81.00
2018-02-11T01:04:23.358Z,81.20
2018-02-11T01:06:51.338Z,81.20
2018-02-11T01:09:19.298Z,81.30
2018-02-11T01:11:47.248Z,81.60
2018-02-11T01:14:15.161Z,81.00
2018-02-11T01:16:43.086Z,81.80
2018-02-11T01:19:11.078Z,82.70
2018-02-11T01:21:39.038Z,81.30
2018-02-11T01:24:06.928Z,81.00
2018-02-11T01:26:34.856Z,82.10
2018-02-11T01:29:02.838Z,81.00
2018-02-11T01:31:30.818Z,81.00
2018-02-11T01:33:58.779Z,81.00
2018-02-11T01:36:26.718Z,81.60
2018-02-11T01:38:54.719Z,81.80
2018-02-11T01:41:22.588Z,81.80
2018-02-11T01:43:50.562Z,81.70
2018-02-11T01:46:18.518Z,82.00
2018-02-11T01:48:46.472Z,82.60
2018-02-11T01:51:14.445Z,82.60
2018-02-11T01:53:42.440Z,82.80
2018-02-11T01:56:10.407Z,82.80
2018-02-11T01:58:38.479Z,82.40
2018-02-11T02:01:06.538Z,82.60
2018-02-11T02:03:34.526Z,82.80
2018-02-11T02:06:02.479Z,83.70
2018-02-11T02:08:30.327Z,82.90
2018-02-11T02:10:58.318Z,83.10
2018-02-11T02:13:26.196Z,83.10
2018-02-11T02:15:54.128Z,83.20
2018-02-11T02:18:22.028Z,83.60
2018-02-11T02:20:49.978Z,83.60
2018-02-11T02:23:17.958Z,83.90
2018-02-11T02:25:45.921Z,83.70
2018-02-11T02:28:13.807Z,83.70
2018-02-11T02:30:41.767Z,82.80
2018-02-11T02:33:09.708Z,82.70
2018-02-11T02:35:37.598Z,82.80
2018-02-11T02:38:05.558Z,83.20
2018-02-11T02:40:33.518Z,82.80
2018-02-11T02:43:01.409Z,82.70
2018-02-11T02:45:29.358Z,83.20
2018-02-11T02:47:57.314Z,82.70
2018-02-11T02:50:25.282Z,82.50
2018-02-11T02:52:53.259Z,82.50
2018-02-11T02:55:21.238Z,82.60
2018-02-11T02:57:49.200Z,83.20
2018-02-11T03:00:17.143Z,82.60
2018-02-11T03:02:45.038Z,82.50
2018-02-11T03:05:13.018Z,82.50
2018-02-11T03:07:40.978Z,83.20
2018-02-11T03:10:08.938Z,82.90
2018-02-11T03:12:36.818Z,83.80
2018-02-11T03:15:04.778Z,83.80
2018-02-11T03:17:32.758Z,83.50
2018-02-11T03:20:00.718Z,82.60
2018-02-11T03:22:28.678Z,82.90
2018-02-11T03:24:56.568Z,83.10
2018-02-11T03:27:24.517Z,82.50
2018-02-11T03:29:52.498Z,82.80
2018-02-11T03:32:20.458Z,83.60
2018-02-11T03:34:48.418Z,82.70
2018-02-11T03:37:16.350Z,82.60
2018-02-11T03:39:44.155Z,82.50
2018-02-11T03:42:12.138Z,82.60
2018-02-11T03:44:40.098Z,83.10
2018-02-11T03:47:07.993Z,83.10
2018-02-11T03:49:36.658Z,84.00
2018-02-11T03:52:04.718Z,83.20
2018-02-11T03:54:32.698Z,82.90
2018-02-11T03:57:00.636Z,82.50
2018-02-11T03:59:28.618Z,82.70
2018-02-11T04:01:56.598Z,82.60
2018-02-11T04:04:24.469Z,83.10
2018-02-11T04:06:52.311Z,82.70
2018-02-11T04:09:20.298Z,83.40
2018-02-11T04:11:48.260Z,83.60
2018-02-11T04:14:16.149Z,83.00
2018-02-11T04:16:44.008Z,83.10
2018-02-11T04:19:11.967Z,83.70
2018-02-11T04:21:39.943Z,83.80
2018-02-11T04:24:07.898Z,83.40
2018-02-11T04:26:35.788Z,82.90
2018-02-11T04:29:03.856Z,82.80
2018-02-11T04:31:31.789Z,83.10
2018-02-11T04:33:59.777Z,83.60
2018-02-11T04:36:27.738Z,83.30
2018-02-11T04:38:55.618Z,83.50
2018-02-11T04:41:23.578Z,83.40
2018-02-11T04:43:51.558Z,83.00
2018-02-11T04:46:19.625Z,82.60
2018-02-11T04:48:47.508Z,82.60
2018-02-11T04:51:15.458Z,83.60
2018-02-11T04:53:43.417Z,84.30
2018-02-11T04:56:11.398Z,84.10
2018-02-11T04:58:39.240Z,83.10
2018-02-11T05:01:07.117Z,83.00
2018-02-11T05:03:35.097Z,82.90
2018-02-11T05:06:03.061Z,83.90
2018-02-11T05:08:30.937Z,84.20
2018-02-11T05:10:58.899Z,83.50
2018-02-11T05:13:26.858Z,83.80
2018-02-11T05:15:54.843Z,83.30
2018-02-11T05:18:23.618Z,83.40
2018-02-11T05:20:51.598Z,83.40
2018-02-11T05:23:19.557Z,83.50
2018-02-11T05:25:47.512Z,83.80
2018-02-11T05:28:15.908Z,83.90
2018-02-11T05:30:43.788Z,83.80
2018-02-11T05:33:11.737Z,84.00
2018-02-11T05:35:39.718Z,83.90
2018-02-11T05:38:07.660Z,83.60
2018-02-11T05:40:35.537Z,83.50
2018-02-11T05:43:03.498Z,82.60
2018-02-11T05:45:31.388Z,82.10
2018-02-11T05:48:00.057Z,81.70
2018-02-11T05:50:28.038Z,81.70
2018-02-11T05:52:55.908Z,81.40
2018-02-11T05:55:23.676Z,80.80
2018-02-11T05:57:51.637Z,80.60
2018-02-11T06:00:19.597Z,80.60
2018-02-11T06:02:47.553Z,80.60
2018-02-11T06:05:15.637Z,81.10
2018-02-11T06:07:43.518Z,81.10
2018-02-11T06:10:11.477Z,81.10
2018-02-11T06:12:39.437Z,81.10
2018-02-11T06:15:07.364Z,81.10
2018-02-11T06:17:36.082Z,82.00
2018-02-11T06:20:04.288Z,81.90
2018-02-11T06:22:33.059Z,83.60
2018-02-11T06:25:00.917Z,83.60
2018-02-11T06:27:29.097Z,83.30
2018-02-11T06:29:57.078Z,82.70
2018-02-11T06:32:25.037Z,82.90
2018-02-11T06:34:52.991Z,82.70
2018-02-11T06:37:20.977Z,82.70
2018-02-11T06:39:48.847Z,82.90
2018-02-11T06:42:16.818Z,82.40
2018-02-11T06:44:44.777Z,82.90
2018-02-11T06:47:12.758Z,82.00
2018-02-11T06:49:40.718Z,81.70
2018-02-11T06:52:08.668Z,81.50
2018-02-11T06:54:36.568Z,81.30
2018-02-11T06:57:04.412Z,81.40
2018-02-11T06:59:32.378Z,81.30
2018-02-11T07:02:00.339Z,81.30
2018-02-11T07:04:28.317Z,80.20
2018-02-11T07:06:56.298Z,81.00
2018-02-11T07:09:24.176Z,79.70
2018-02-11T07:11:52.118Z,76.90
2018-02-11T07:14:20.010Z,77.50
2018-02-11T07:16:47.957Z,77.50
2018-02-11T07:19:15.946Z,77.50
2018-02-11T07:21:43.900Z,77.50
2018-02-11T07:24:11.758Z,77.30
2018-02-11T07:26:39.615Z,78.00
2018-02-11T07:29:07.598Z,78.20
2018-02-11T07:31:35.558Z,77.90
2018-02-11T07:34:03.521Z,78.50
2018-02-11T07:36:31.499Z,78.50
2018-02-11T07:38:59.478Z,78.40
2018-02-11T07:41:27.351Z,78.20
2018-02-11T07:43:55.302Z,77.90
2018-02-11T07:46:23.261Z,77.70
2018-02-11T07:48:51.168Z,77.70
2018-02-11T07:51:19.120Z,77.00
2018-02-11T07:53:46.988Z,76.80
2018-02-11T07:56:14.940Z,76.80
2018-02-11T07:58:42.918Z,77.00
2018-02-11T08:01:10.878Z,76.90
2018-02-11T08:03:38.887Z,77.70
2018-02-11T08:06:07.538Z,77.00
2018-02-11T08:08:35.518Z,77.00
2018-02-11T08:11:03.477Z,77.00
2018-02-11T08:13:31.327Z,77.00
2018-02-11T08:15:59.311Z,77.60
2018-02-11T08:18:27.277Z,77.80
2018-02-11T08:20:55.138Z,77.90
2018-02-11T08:23:23.018Z,77.10
2018-02-11T08:25:50.978Z,76.90
2018-02-11T08:28:18.935Z,76.90
2018-02-11T08:30:46.834Z,76.80
2018-02-11T08:33:14.778Z,76.30
2018-02-11T08:35:42.757Z,76.00
2018-02-11T08:38:10.719Z,76.60
2018-02-11T08:40:38.581Z,76.10
2018-02-11T08:43:06.557Z,73.20
2018-02-11T08:45:34.509Z,70.60
2018-02-11T08:48:02.517Z,72.00
2018-02-11T08:50:30.466Z,69.10
2018-02-11T08:52:58.438Z,70.40
2018-02-11T08:55:26.394Z,67.30
2018-02-11T08:57:54.353Z,65.00
2018-02-11T09:00:22.345Z,66.00
2018-02-11T09:02:50.290Z,66.00
2018-02-11T09:05:18.259Z,66.80
2018-02-11T09:07:46.246Z,66.20
2018-02-11T09:10:14.217Z,67.00
2018-02-11T09:12:42.178Z,68.00
2018-02-11T09:15:10.132Z,67.20
2018-02-11T09:17:38.119Z,67.00
2018-02-11T09:20:06.098Z,66.60
2018-02-11T09:22:33.946Z,66.20
2018-02-11T09:25:02.018Z,64.60
2018-02-11T09:27:29.996Z,60.60
2018-02-11T09:29:57.957Z,60.70
2018-02-11T09:32:25.916Z,58.80
2018-02-11T09:34:53.898Z,58.50
2018-02-11T09:37:21.747Z,58.70
2018-02-11T09:39:49.738Z,57.40
2018-02-11T09:42:17.605Z,57.30
2018-02-11T09:44:45.578Z,57.00
2018-02-11T09:47:13.429Z,57.40
2018-02-11T09:49:41.378Z,58.00
2018-02-11T09:52:09.356Z,57.20
2018-02-11T09:54:37.321Z,57.60
2018-02-11T09:57:05.219Z,58.00
2018-02-11T09:59:33.178Z,58.00
2018-02-11T10:02:01.138Z,57.50
2018-02-11T10:04:29.866Z,56.50
2018-02-11T10:06:58.618Z,56.40
2018-02-11T10:09:26.469Z,56.50
2018-02-11T10:11:54.460Z,56.40
2018-02-11T10:14:22.417Z,56.50
2018-02-11T10:16:50.398Z,56.10
2018-02-11T10:19:18.239Z,55.00
2018-02-11T10:21:46.218Z,54.30
2018-02-11T10:24:14.206Z,54.10
2018-02-11T10:26:42.158Z,53.40
2018-02-11T10:29:10.116Z,54.40
2018-02-11T10:31:38.107Z,54.00
2018-02-11T10:34:06.078Z,54.20
2018-02-11T10:36:34.038Z,53.80
2018-02-11T10:39:01.904Z,52.70
2018-02-11T10:41:29.857Z,52.10
2018-02-11T10:43:57.847Z,52.00
2018-02-11T10:46:25.822Z,52.00
2018-02-11T10:48:53.590Z,51.70
2018-02-11T10:51:21.453Z,50.80
2018-02-11T10:53:49.287Z,51.80
2018-02-11T10:56:17.278Z,50.70
2018-02-11T10:58:45.238Z,51.20
2018-02-11T11:01:13.098Z,50.50
2018-02-11T11:03:41.009Z,50.40
2018-02-11T11:06:09.747Z,49.40
2018-02-11T11:08:37.741Z,48.90
2018-02-11T11:11:05.698Z,48.80
2018-02-11T11:13:33.677Z,48.10
2018-02-11T11:16:01.641Z,47.80
2018-02-11T11:18:29.598Z,47.60
2018-02-11T11:20:57.608Z,48.30
2018-02-11T11:23:26.344Z,47.90
2018-02-11T11:25:54.317Z,47.90
2018-02-11T11:28:22.307Z,50.20
2018-02-11T11:30:50.278Z,48.60
2018-02-11T11:33:18.238Z,48.10
2018-02-11T11:35:46.320Z,47.60
2018-02-11T11:38:14.262Z,47.80
2018-02-11T11:40:42.218Z,49.00
2018-02-11T11:43:10.418Z,49.20
2018-02-11T11:45:38.398Z,48.20
2018-02-11T11:48:06.341Z,47.70
2018-02-11T11:50:34.117Z,48.00
2018-02-11T11:53:02.095Z,47.50
2018-02-11T11:55:29.999Z,46.40
2018-02-11T11:57:58.645Z,47.40
2018-02-11T12:00:26.437Z,47.40
2018-02-11T12:02:54.378Z,47.80
2018-02-11T12:05:22.438Z,46.50
2018-02-11T12:07:50.254Z,48.60
2018-02-11T12:10:18.881Z,46.10
2018-02-11T12:12:46.640Z,46.10
2018-02-11T12:15:14.930Z,47.30
2018-02-11T12:17:42.878Z,46.60
2018-02-11T12:20:10.749Z,47.80
2018-02-11T12:22:38.722Z,45.30
2018-02-11T12:25:06.478Z,45.50
2018-02-11T12:27:34.268Z,46.00
2018-02-11T12:30:02.218Z,44.50
2018-02-11T12:32:30.115Z,44.00
2018-02-11T12:34:57.988Z,45.10
2018-02-11T12:37:25.917Z,45.50
2018-02-11T12:39:53.678Z,45.90
2018-02-11T12:42:21.864Z,45.90
2018-02-11T12:44:49.704Z,45.90
2018-02-11T12:47:17.618Z,45.50
2018-02-11T12:49:45.577Z,45.80
2018-02-11T12:52:14.457Z,45.80
2018-02-11T12:54:42.235Z,46.10
2018-02-11T12:57:10.197Z,45.80
2018-02-11T12:59:38.157Z,46.40
2018-02-11T13:02:06.138Z,42.50
2018-02-11T13:04:34.004Z,43.00
2018-02-11T13:07:01.872Z,43.50
2018-02-11T13:09:29.750Z,43.40
2018-02-11T13:11:57.606Z,43.80
2018-02-11T13:14:25.487Z,42.70
2018-02-11T13:16:53.356Z,43.00
2018-02-11T13:19:22.845Z,48.60
2018-02-11T13:21:50.785Z,48.60
2018-02-11T13:24:18.756Z,47.70
2018-02-11T13:26:46.746Z,48.50
2018-02-11T13:29:14.718Z,48.50
2018-02-11T13:31:42.463Z,49.10
2018-02-11T13:34:10.439Z,49.90
2018-02-11T13:36:38.328Z,49.90
2018-02-11T13:39:06.278Z,49.20
2018-02-11T13:41:34.137Z,50.00
2018-02-11T13:44:02.011Z,48.70
2018-02-11T13:46:29.977Z,47.80
2018-02-11T13:48:57.957Z,47.90
2018-02-11T13:51:25.917Z,46.80
2018-02-11T13:53:53.695Z,46.50
2018-02-11T13:56:21.522Z,46.60
2018-02-11T13:58:49.428Z,47.70
2018-02-11T14:01:17.377Z,46.40
2018-02-11T14:03:45.334Z,45.80
2018-02-11T14:06:13.301Z,46.90
2018-02-11T14:08:41.177Z,46.50
2018-02-11T14:11:08.952Z,45.40
2018-02-11T14:13:37.345Z,45.40
2018-02-11T14:16:05.297Z,46.40
2018-02-11T14:18:33.257Z,44.80
2018-02-11T14:21:01.217Z,46.10
2018-02-11T14:23:29.197Z,47.10
2018-02-11T14:25:56.958Z,48.30
2018-02-11T14:28:24.937Z,48.40
2018-02-11T14:30:52.811Z,48.30
2018-02-11T14:33:20.777Z,48.60
2018-02-11T14:35:48.737Z,48.70
2018-02-11T14:38:16.786Z,49.00
2018-02-11T14:40:44.776Z,48.10
2018-02-11T14:43:12.736Z,48.80
2018-02-11T14:45:40.717Z,49.20
2018-02-11T14:48:08.677Z,48.80
2018-02-11T14:50:36.558Z,48.20
2018-02-11T14:53:04.817Z,47.70
2018-02-11T14:55:32.704Z,45.20
2018-02-11T14:58:02.103Z,47.20
2018-02-11T15:00:30.057Z,47.20
2018-02-11T15:02:57.983Z,48.00
2018-02-11T15:05:26.716Z,49.00
2018-02-11T15:07:54.668Z,49.00
2018-02-11T15:10:22.638Z,49.40
2018-02-11T15:12:50.617Z,50.10
2018-02-11T15:15:18.598Z,49.90
2018-02-11T15:17:46.352Z,50.70
2018-02-11T15:20:14.318Z,50.40
2018-02-11T15:22:42.197Z,50.30
2018-02-11T15:25:10.069Z,49.50
2018-02-11T15:27:37.905Z,49.70
2018-02-11T15:30:05.875Z,49.90
2018-02-11T15:32:33.768Z,50.40
2018-02-11T15:35:01.845Z,51.50
2018-02-11T15:37:31.315Z,51.80
2018-02-11T15:39:59.197Z,51.70
2018-02-11T15:42:27.093Z,51.50
2018-02-11T15:44:55.026Z,52.10
2018-02-11T15:47:22.781Z,52.80
2018-02-11T15:49:50.664Z,52.60
2018-02-11T15:52:18.637Z,51.40
2018-02-11T15:54:46.597Z,52.10
2018-02-11T15:57:14.466Z,52.60
2018-02-11T15:59:42.422Z,53.00
2018-02-11T16:02:10.389Z,53.60
2018-02-11T16:04:38.377Z,54.00
2018-02-11T16:07:06.337Z,53.80
2018-02-11T16:09:34.317Z,53.40
2018-02-11T16:12:02.277Z,55.00
2018-02-11T16:14:30.302Z,54.30
2018-02-11T16:16:58.987Z,53.70
2018-02-11T16:19:26.996Z,53.60
2018-02-11T16:21:55.004Z,54.00
2018-02-11T16:24:23.757Z,55.60
2018-02-11T16:26:51.713Z,55.60
2018-02-11T16:29:19.707Z,54.70
2018-02-11T16:31:47.651Z,54.00
2018-02-11T16:34:15.617Z,53.50
2018-02-11T16:36:43.596Z,55.20
2018-02-11T16:39:11.455Z,55.60
2018-02-11T16:41:39.444Z,55.40
2018-02-11T16:44:07.296Z,55.60
2018-02-11T16:46:35.185Z,57.10
2018-02-11T16:49:03.137Z,56.50
2018-02-11T16:51:31.030Z,57.70
2018-02-11T16:53:58.985Z,57.70
2018-02-11T16:56:26.937Z,58.40
2018-02-11T16:58:54.917Z,58.10
2018-02-11T17:01:22.778Z,58.20
2018-02-11T17:03:50.832Z,57.30
2018-02-11T17:06:18.728Z,56.70
2018-02-11T17:08:46.483Z,53.50
2018-02-11T17:11:14.431Z,53.70
2018-02-11T17:13:42.398Z,54.40
2018-02-11T17:16:10.225Z,54.50
2018-02-11T17:18:38.976Z,53.70
2018-02-11T17:21:06.848Z,53.60
2018-02-11T17:23:34.705Z,55.00
2018-02-11T17:26:02.677Z,55.50
2018-02-11T17:28:30.637Z,56.00
2018-02-11T17:30:58.622Z,55.60
2018-02-11T17:33:26.577Z,55.90
2018-02-11T17:35:54.465Z,56.00
2018-02-11T17:38:22.395Z,55.90
2018-02-11T17:40:50.277Z,55.10
2018-02-11T17:43:18.152Z,54.30
2018-02-11T17:45:46.098Z,55.10
2018-02-11T17:48:13.961Z,54.70
2018-02-11T17:50:41.873Z,55.00
2018-02-11T17:53:09.817Z,54.10
2018-02-11T17:55:37.777Z,54.10
2018-02-11T17:58:05.656Z,54.30
2018-02-11T18:00:33.516Z,55.00
2018-02-11T18:03:01.455Z,55.10
2018-02-11T18:05:29.358Z,56.00
2018-02-11T18:07:57.318Z,56.60
2018-02-11T18:10:25.831Z,56.40
2018-02-11T18:12:54.476Z,57.30
2018-02-11T18:15:22.456Z,57.30
2018-02-11T18:17:50.329Z,57.60
2018-02-11T18:20:18.183Z,57.30
2018-02-11T18:22:46.057Z,57.60
2018-02-11T18:25:14.017Z,56.40
2018-02-11T18:27:41.976Z,56.20
2018-02-11T18:30:09.957Z,55.60
2018-02-11T18:32:37.910Z,55.90
2018-02-11T18:35:05.898Z,56.30
2018-02-11T18:37:33.767Z,56.50
2018-02-11T18:40:01.628Z,56.60
2018-02-11T18:42:29.605Z,57.20
2018-02-11T18:44:57.557Z,57.30
2018-02-11T18:47:25.518Z,57.10
2018-02-11T18:49:53.496Z,57.40
2018-02-11T18:52:21.388Z,58.00
2018-02-11T18:54:49.319Z,58.60
2018-02-11T18:57:17.196Z,59.00
2018-02-11T18:59:45.177Z,58.80
2018-02-11T19:02:13.137Z,58.50
2018-02-11T19:04:41.022Z,59.20
2018-02-11T19:07:08.868Z,59.10
2018-02-11T19:09:36.820Z,59.70
2018-02-11T19:12:04.795Z,60.40
2018-02-11T19:14:32.777Z,59.90
2018-02-11T19:17:00.732Z,59.90
2018-02-11T19:19:28.697Z,60.70
2018-02-11T19:21:56.677Z,61.30
2018-02-11T19:24:24.659Z,62.00
2018-02-11T19:26:52.616Z,62.70
2018-02-11T19:29:20.597Z,64.00
2018-02-11T19:31:48.395Z,64.20
2018-02-11T19:34:17.038Z,65.40
2018-02-11T19:36:44.994Z,65.40
2018-02-11T19:39:13.994Z,65.80
2018-02-11T19:41:41.957Z,66.10
2018-02-11T19:44:09.822Z,66.50
2018-02-11T19:46:37.787Z,67.50
2018-02-11T19:49:05.797Z,67.60
2018-02-11T19:51:33.737Z,67.40
2018-02-11T19:54:01.822Z,68.00
2018-02-11T19:56:29.776Z,67.30
2018-02-11T19:58:57.735Z,68.60
2018-02-11T20:01:25.584Z,68.40
2018-02-11T20:03:53.477Z,69.30
2018-02-11T20:06:21.364Z,69.30
2018-02-11T20:08:49.168Z,69.60
2018-02-11T20:11:17.077Z,68.60
2018-02-11T20:13:44.975Z,69.70
2018-02-11T20:16:13.003Z,69.20
2018-02-11T20:18:40.880Z,70.40
2018-02-11T20:21:11.805Z,70.20
2018-02-11T20:23:39.977Z,72.30
2018-02-11T20:26:10.153Z,71.20
2018-02-11T20:28:39.118Z,73.00
2018-02-11T20:31:07.058Z,72.90
2018-02-11T20:33:34.953Z,73.20
2018-02-11T20:36:03.816Z,72.50
2018-02-11T20:38:31.996Z,74.70
2018-02-11T20:40:59.759Z,73.90
2018-02-11T20:43:27.623Z,75.40
2018-02-11T20:45:55.580Z,76.30
2018-02-11T20:48:23.483Z,75.20
2018-02-11T20:50:51.324Z,76.30
2018-02-11T20:53:19.297Z,77.10
2018-02-11T20:55:47.194Z,76.60
2018-02-11T20:58:15.056Z,79.00
2018-02-11T21:00:43.022Z,78.10
2018-02-11T21:03:10.977Z,78.20
2018-02-11T21:05:38.929Z,78.30
2018-02-11T21:08:06.898Z,78.60
2018-02-11T21:10:35.287Z,78.90
2018-02-11T21:13:03.157Z,79.30
2018-02-11T21:15:31.140Z,79.30
2018-02-11T21:17:59.097Z,77.00
2018-02-11T21:20:26.841Z,77.60
2018-02-11T21:22:55.251Z,79.40
2018-02-11T21:25:23.225Z,77.30
2018-02-11T21:27:51.177Z,78.10
2018-02-11T21:30:19.044Z,78.70
2018-02-11T21:32:47.000Z,78.30
2018-02-11T21:35:14.977Z,78.20
2018-02-11T21:37:42.957Z,78.40
2018-02-11T21:40:10.917Z,80.10
2018-02-11T21:42:38.877Z,80.00
2018-02-11T21:45:06.769Z,79.20
2018-02-11T21:47:34.717Z,79.10
2018-02-11T21:50:02.697Z,79.00
2018-02-11T21:52:30.658Z,79.40
2018-02-11T21:54:58.616Z,79.40
2018-02-11T21:57:26.598Z,79.40
2018-02-11T21:59:54.560Z,79.90
2018-02-11T22:02:22.525Z,79.90
2018-02-11T22:04:50.484Z,79.90
2018-02-11T22:07:18.477Z,79.80
2018-02-11T22:09:46.422Z,79.80
2018-02-11T22:12:14.207Z,80.80
2018-02-11T22:14:42.177Z,80.80
2018-02-11T22:17:10.047Z,79.80
2018-02-11T22:19:37.997Z,80.20
2018-02-11T22:22:05.892Z,80.70
2018-02-11T22:24:33.837Z,80.50
2018-02-11T22:27:01.817Z,80.60
2018-02-11T22:29:29.692Z,81.10
2018-02-11T22:31:57.636Z,80.90
2018-02-11T22:34:25.617Z,81.20
2018-02-11T22:36:53.564Z,82.60
2018-02-11T22:39:21.457Z,81.50
2018-02-11T22:41:49.416Z,81.10
2018-02-11T22:44:17.377Z,82.60
2018-02-11T22:46:45.356Z,81.60
2018-02-11T22:49:13.317Z,81.50
2018-02-11T22:51:41.297Z,83.20
2018-02-11T22:54:09.163Z,81.90
2018-02-11T22:56:37.164Z,82.10
2018-02-11T22:59:05.105Z,83.20
2018-02-11T23:01:33.057Z,83.60
2018-02-11T23:04:01.015Z,84.10
2018-02-11T23:06:28.908Z,82.90
2018-02-11T23:08:56.899Z,83.10
2018-02-11T23:11:24.747Z,83.70
2018-02-11T23:13:52.696Z,81.90
2018-02-11T23:16:20.655Z,82.10
2018-02-11T23:18:48.636Z,83.70
2018-02-11T23:21:16.525Z,83.70
2018-02-11T23:23:44.457Z,83.60
2018-02-11T23:26:12.340Z,83.10
2018-02-11T23:28:40.299Z,83.30
2018-02-11T23:31:08.277Z,82.20
2018-02-11T23:33:36.172Z,83.10
2018-02-11T23:36:04.854Z,83.60
2018-02-11T23:38:32.796Z,83.70
2018-02-11T23:41:00.687Z,82.50
2018-02-11T23:43:30.152Z,83.70
2018-02-11T23:45:58.047Z,83.70
2018-02-11T23:48:25.996Z,85.70
2018-02-11T23:50:54.020Z,85.00
2018-02-11T23:53:22.756Z,83.60
2018-02-11T23:55:50.609Z,83.50
2018-02-11T23:58:18.583Z,82.60
